Terminal Aerodrome Forecast
Issued by NWS Cleveland, OH

Home | Current Version | Previous Version | Graphics & Text | Print | Product List | Glossary On
Versions: 1 2 3 4 5 6 7 8 9 10 11 12 13 14 15 16 17 18 19 20 21 22
000
FTUS41 KCLE 031100
TAFMFD
TAF
KMFD 031129Z 0312/0412 21008KT P6SM SCT100 BKN250
     FM031800 21010G18KT P6SM SCT060 BKN250
     FM040100 18008KT P6SM FEW100 SCT250=

USA.gov is the U.S. government's official web portal to all federal, state and local government web resources and services.